LNG Libra — V7BX3 — position and weather

sailwx.info

Track history (hours):
 
Tides and Currents Weather Stations Pressure Air Temp Water Temp Dewpoint Dewpoint Depression Visibility Wind Speed Wind Dir Waves Ship Positions

LNG Libra

Last reported at 2014-Sep-08 16:04 UTC. Time now 2014-Sep-17 07:35 UTC.
Position S 35°10' W 056°50'.
Warning: this ship's position is 8 days out of date.

Type: Tanker. MMSI: 538001390.

Date/timePositionNaut miles runAvg speedWind from/ knotsBaromVisibWave heightAir tempDewpointWater temp
2014-Sep-08 16:04S 35°10' W 056°50'3212.1
2014-Sep-08 13:25S 34°51' W 057°22'1214.0
2014-Sep-08 12:33S 34°46' W 057°35'1212.2
2014-Sep-08 11:34S 34°43' W 057°49'1010.2
2014-Sep-08 10:33S 34°40' W 058°01'1312.7
2014-Sep-08 09:33S 34°36' W 058°15'1111.0
2014-Sep-08 08:33S 34°27' W 058°24'1010.0
2014-Sep-08 07:33S 34°19' W 058°30'22 0.5
2014-Sep-06 13:32S 34°37' W 058°14'1111.4
2014-Sep-06 12:33S 34°40' W 058°01'1010.2
2014-Sep-06 11:34S 34°43' W 057°50'1010.0
2014-Sep-06 10:33S 34°45' W 057°38'  
Track history (hours):
 
Tides and Currents Weather Stations Pressure Air Temp Water Temp Dewpoint Dewpoint Depression Visibility Wind Speed Wind Dir Waves Ship Positions

LNG Libra

Last reported at 2014-Sep-08 16:04 UTC. Time now 2014-Sep-17 07:35 UTC.
Position S 35°10' W 056°50'.
Warning: this ship's position is 8 days out of date.

Type: Tanker. MMSI: 538001390.

Date/timePositionNaut miles runAvg speedWind from/ knotsBaromVisibWave heightAir tempDewpointWater temp
2014-Sep-08 16:04S 35°10' W 056°50'3212.1
2014-Sep-08 13:25S 34°51' W 057°22'1214.0
2014-Sep-08 12:33S 34°46' W 057°35'1212.2
2014-Sep-08 11:34S 34°43' W 057°49'1010.2
2014-Sep-08 10:33S 34°40' W 058°01'1312.7
2014-Sep-08 09:33S 34°36' W 058°15'1111.0
2014-Sep-08 08:33S 34°27' W 058°24'1010.0
2014-Sep-08 07:33S 34°19' W 058°30'22 0.5
2014-Sep-06 13:32S 34°37' W 058°14'1111.4
2014-Sep-06 12:33S 34°40' W 058°01'1010.2
2014-Sep-06 11:34S 34°43' W 057°50'1010.0
2014-Sep-06 10:33S 34°45' W 057°38'  

Dump ship's entire track history